createdAt,value
2023-02-18T00:00:29.210Z,99210.03
2023-02-18T00:02:58.292Z,99199.66
2023-02-18T00:05:25.463Z,99193.13
2023-02-18T00:07:52.320Z,99192.72
2023-02-18T00:10:19.273Z,99192.88
2023-02-18T00:12:46.030Z,99185.19
2023-02-18T00:15:13.128Z,99196.09
2023-02-18T00:17:39.919Z,99190.91
2023-02-18T00:20:08.233Z,99193.97
2023-02-18T00:22:35.532Z,99195.38
2023-02-18T00:25:02.424Z,99199.28
2023-02-18T00:27:29.070Z,99195.06
2023-02-18T00:29:55.640Z,99199.66
2023-02-18T00:32:22.567Z,99191.47
2023-02-18T00:34:49.551Z,99193.72
2023-02-18T00:37:16.463Z,99189.31
2023-02-18T00:39:44.238Z,99208.09
2023-02-18T00:42:10.700Z,99194.66
2023-02-18T00:44:37.099Z,99189.78
2023-02-18T00:47:03.756Z,99194.78
2023-02-18T00:49:30.434Z,99196.84
2023-02-18T00:51:57.137Z,99200.50
2023-02-18T00:54:23.953Z,99197.91
2023-02-18T00:56:52.651Z,99199.97
2023-02-18T00:59:19.058Z,99196.94
2023-02-18T01:01:45.496Z,99187.59
2023-02-18T01:04:12.242Z,99183.16
2023-02-18T01:06:39.542Z,99183.75
2023-02-18T01:09:06.489Z,99175.66
2023-02-18T01:11:33.233Z,99174.59
2023-02-18T01:13:59.890Z,99181.88
2023-02-18T01:16:26.899Z,99186.94
2023-02-18T01:18:53.614Z,99189.16
2023-02-18T01:21:20.557Z,99177.03
2023-02-18T01:23:47.095Z,99179.13
2023-02-18T01:26:13.537Z,99171.97
2023-02-18T01:28:41.657Z,99156.13
2023-02-18T01:31:10.757Z,99160.00
2023-02-18T01:33:38.262Z,99166.31
2023-02-18T01:36:05.493Z,99155.22
2023-02-18T01:38:32.289Z,99150.09
2023-02-18T01:40:59.182Z,99148.63
2023-02-18T01:43:25.616Z,99148.13
2023-02-18T01:45:57.934Z,99146.13
2023-02-18T01:48:38.024Z,99142.78
2023-02-18T01:51:19.247Z,99140.06
2023-02-18T01:54:11.476Z,99143.31
2023-02-18T01:56:56.421Z,99137.31
2023-02-18T01:59:34.662Z,99148.50
2023-02-18T02:02:01.241Z,99139.59
2023-02-18T02:04:27.727Z,99127.81
2023-02-18T02:06:54.702Z,99129.25
2023-02-18T02:09:24.374Z,99128.06
2023-02-18T02:12:06.021Z,99120.19
2023-02-18T02:14:50.708Z,99121.44
2023-02-18T02:17:30.460Z,99127.44
2023-02-18T02:20:36.872Z,99126.06
2023-02-18T02:23:33.627Z,99122.59
2023-02-18T02:26:41.770Z,99122.28
2023-02-18T02:29:42.340Z,99121.94
2023-02-18T02:32:27.021Z,99109.25
2023-02-18T02:35:16.636Z,99105.53
2023-02-18T02:38:05.058Z,99126.97
2023-02-18T02:40:54.766Z,99112.38
2023-02-18T02:43:33.880Z,99118.00
2023-02-18T02:46:03.244Z,99114.03
2023-02-18T02:48:38.166Z,99111.31
2023-02-18T02:51:12.815Z,99110.53
2023-02-18T02:53:42.402Z,99111.44
2023-02-18T02:56:24.438Z,99109.69
2023-02-18T02:59:01.107Z,99105.13
2023-02-18T03:02:10.168Z,99110.44
2023-02-18T03:04:53.006Z,99108.78
2023-02-18T03:07:28.606Z,99102.75
2023-02-18T03:10:23.564Z,99096.28
2023-02-18T03:13:05.390Z,99095.63
2023-02-18T03:15:55.206Z,99085.09
2023-02-18T03:18:33.792Z,99094.84
2023-02-18T03:21:08.614Z,99080.94
2023-02-18T03:23:40.046Z,99073.69
2023-02-18T03:26:09.184Z,99067.16
2023-02-18T03:28:37.056Z,99083.53
2023-02-18T03:31:10.793Z,99073.50
2023-02-18T03:33:54.157Z,99069.69
2023-02-18T03:36:21.848Z,99079.25
2023-02-18T03:38:56.259Z,99083.31
2023-02-18T03:41:22.730Z,99077.63
2023-02-18T03:43:53.336Z,99089.91
2023-02-18T03:46:19.927Z,99099.13
2023-02-18T03:48:46.487Z,99099.28
2023-02-18T03:51:13.330Z,99096.31
2023-02-18T03:53:39.759Z,99099.34
2023-02-18T03:56:06.735Z,99092.31
2023-02-18T03:58:33.615Z,99083.13
2023-02-18T04:01:00.009Z,99091.66
2023-02-18T04:03:26.476Z,99090.44
2023-02-18T04:05:52.983Z,99084.28
2023-02-18T04:08:19.508Z,99092.25
2023-02-18T04:10:45.943Z,99081.22
2023-02-18T04:13:13.173Z,99075.13
2023-02-18T04:15:39.583Z,99074.84
2023-02-18T04:18:06.042Z,99061.81
2023-02-18T04:20:32.484Z,99063.69
2023-02-18T04:22:58.930Z,99066.47
2023-02-18T04:25:25.314Z,99070.91
2023-02-18T04:27:51.735Z,99065.47
2023-02-18T04:30:19.122Z,99069.50
2023-02-18T04:32:45.776Z,99067.84
2023-02-18T04:35:12.226Z,99066.16
2023-02-18T04:37:38.831Z,99061.50
2023-02-18T04:40:05.973Z,99054.94
2023-02-18T04:42:32.444Z,99057.16
2023-02-18T04:44:58.832Z,99067.81
2023-02-18T04:47:25.728Z,99059.94
2023-02-18T04:49:52.177Z,99048.25
2023-02-18T04:52:18.798Z,99046.69
2023-02-18T04:54:45.844Z,99042.03
2023-02-18T04:57:12.329Z,99045.94
2023-02-18T04:59:39.294Z,99041.84
2023-02-18T05:02:05.960Z,99042.16
2023-02-18T05:04:32.445Z,99033.47
2023-02-18T05:06:58.914Z,99033.34
2023-02-18T05:09:25.536Z,99042.50
2023-02-18T05:11:52.635Z,99042.34
2023-02-18T05:14:19.147Z,99036.91
2023-02-18T05:16:45.688Z,99029.38
2023-02-18T05:19:16.067Z,99019.69
2023-02-18T05:21:42.992Z,99013.94
2023-02-18T05:24:09.878Z,99015.22
2023-02-18T05:26:36.331Z,99016.53
2023-02-18T05:29:02.744Z,99006.59
2023-02-18T05:31:29.373Z,99009.28
2023-02-18T05:33:55.846Z,99012.50
2023-02-18T05:36:22.208Z,99002.06
2023-02-18T05:38:48.624Z,98994.69
2023-02-18T05:41:15.005Z,98991.78
2023-02-18T05:44:00.180Z,98990.59
2023-02-18T05:46:26.731Z,98979.09
2023-02-18T05:48:53.249Z,98977.03
2023-02-18T05:51:19.679Z,98981.38
2023-02-18T05:53:46.149Z,98976.13
2023-02-18T05:56:12.686Z,98975.28
2023-02-18T05:58:39.056Z,98973.66
2023-02-18T06:01:05.474Z,98975.31
2023-02-18T06:03:31.942Z,98969.59
2023-02-18T06:05:58.477Z,98968.84
2023-02-18T06:08:24.935Z,98971.66
2023-02-18T06:10:51.418Z,98961.84
2023-02-18T06:13:17.951Z,98963.75
2023-02-18T06:15:44.494Z,98966.41
2023-02-18T06:18:10.881Z,98962.00
2023-02-18T06:20:38.657Z,98962.84
2023-02-18T06:23:06.144Z,98958.81
2023-02-18T06:25:33.878Z,98964.81
2023-02-18T06:28:00.427Z,98972.94
2023-02-18T06:30:26.895Z,98966.50
2023-02-18T06:32:53.359Z,98972.28
2023-02-18T06:35:19.753Z,98970.91
2023-02-18T06:37:46.488Z,98971.66
2023-02-18T06:40:13.307Z,98970.66
2023-02-18T06:42:39.981Z,98966.56
2023-02-18T06:45:09.233Z,98959.78
2023-02-18T06:47:35.618Z,98958.19
2023-02-18T06:50:02.240Z,98954.78
2023-02-18T06:52:30.545Z,98965.75
2023-02-18T06:54:56.952Z,98935.53
2023-02-18T06:57:23.409Z,98940.28
2023-02-18T06:59:49.816Z,98945.22
2023-02-18T07:02:16.446Z,98942.81
2023-02-18T07:04:45.606Z,98945.09
2023-02-18T07:07:12.088Z,98940.78
2023-02-18T07:09:38.520Z,98942.28
2023-02-18T07:12:05.083Z,98935.03
2023-02-18T07:14:31.496Z,98933.38
2023-02-18T07:16:58.208Z,98938.66
2023-02-18T07:19:24.729Z,98943.88
2023-02-18T07:21:51.251Z,98937.41
2023-02-18T07:24:17.746Z,98934.28
2023-02-18T07:26:44.162Z,98934.84
2023-02-18T07:29:10.642Z,98933.16
2023-02-18T07:31:38.685Z,98921.91
2023-02-18T07:34:05.250Z,98927.28
2023-02-18T07:36:31.767Z,98927.28
2023-02-18T07:38:58.165Z,98934.00
2023-02-18T07:41:25.398Z,98927.97
2023-02-18T07:43:51.779Z,98920.03
2023-02-18T07:46:18.404Z,98916.81
2023-02-18T07:48:44.917Z,98913.97
2023-02-18T07:51:13.356Z,98899.53
2023-02-18T07:53:40.365Z,98902.19
2023-02-18T07:56:07.494Z,98902.19
2023-02-18T07:58:36.730Z,98895.53
2023-02-18T08:01:14.786Z,98888.63
2023-02-18T08:03:41.536Z,98906.28
2023-02-18T08:06:09.059Z,98915.25
2023-02-18T08:08:37.080Z,98911.72
2023-02-18T08:11:18.105Z,98913.25
2023-02-18T08:13:47.080Z,98930.50
2023-02-18T08:16:13.989Z,98934.53
2023-02-18T08:18:40.546Z,98930.25
2023-02-18T08:21:07.011Z,98942.97
2023-02-18T08:23:33.630Z,98953.84
2023-02-18T08:26:00.059Z,98951.94
2023-02-18T08:28:27.356Z,98948.88
2023-02-18T08:30:54.628Z,98953.91
2023-02-18T08:33:22.538Z,98961.16
2023-02-18T08:35:50.893Z,98957.22
2023-02-18T08:38:17.387Z,98964.78
2023-02-18T08:40:44.046Z,98966.50
2023-02-18T08:43:10.884Z,98957.50
2023-02-18T08:45:38.576Z,98952.09
2023-02-18T08:48:16.645Z,98954.66
2023-02-18T08:50:46.851Z,98958.34
2023-02-18T08:53:13.523Z,98961.41
2023-02-18T08:55:40.966Z,98950.28
2023-02-18T08:58:07.675Z,98959.56
2023-02-18T09:00:35.043Z,98960.38
2023-02-18T09:03:01.752Z,98952.97
2023-02-18T09:05:28.354Z,98948.03
2023-02-18T09:07:54.925Z,98948.03
2023-02-18T09:10:21.637Z,98957.41
2023-02-18T09:12:48.250Z,98959.63
2023-02-18T09:15:14.826Z,98961.16
2023-02-18T09:17:41.576Z,98962.19
2023-02-18T09:20:08.535Z,98950.16
2023-02-18T09:22:35.043Z,98942.81
2023-02-18T09:25:01.534Z,98940.28
2023-02-18T09:27:27.923Z,98944.78
2023-02-18T09:29:54.389Z,98961.78
2023-02-18T09:32:33.578Z,98963.47
2023-02-18T09:35:01.661Z,98968.81
2023-02-18T09:37:28.844Z,98973.22
2023-02-18T09:39:55.357Z,98950.41
2023-02-18T09:42:28.134Z,98964.56
2023-02-18T09:44:57.937Z,98968.53
2023-02-18T09:47:35.832Z,98969.81
2023-02-18T09:50:25.849Z,98978.00
2023-02-18T09:52:52.707Z,98966.06
2023-02-18T09:55:30.904Z,98970.78
2023-02-18T09:58:02.652Z,98970.78
2023-02-18T10:00:44.243Z,98966.19
2023-02-18T10:03:23.307Z,98965.78
2023-02-18T10:06:04.035Z,98955.13
2023-02-18T10:08:42.500Z,98939.44
2023-02-18T10:11:28.629Z,98945.59
2023-02-18T10:13:56.068Z,98951.50
2023-02-18T10:16:24.098Z,98945.59
2023-02-18T10:18:55.552Z,98955.69
2023-02-18T10:21:27.473Z,98949.25
2023-02-18T10:24:02.235Z,98944.28
2023-02-18T10:26:31.655Z,98949.78
2023-02-18T10:28:58.600Z,98936.34
2023-02-18T10:31:37.861Z,98948.41
2023-02-18T10:34:23.719Z,98957.50
2023-02-18T10:36:57.086Z,98954.00
2023-02-18T10:39:49.898Z,98959.34
2023-02-18T10:42:25.955Z,98952.06
2023-02-18T10:45:07.718Z,98947.16
2023-02-18T10:48:11.444Z,98935.81
2023-02-18T10:50:46.186Z,98947.00
2023-02-18T10:53:37.455Z,98948.63
2023-02-18T10:56:09.346Z,98945.66
2023-02-18T10:58:47.446Z,98941.72
2023-02-18T11:01:23.605Z,98936.88
2023-02-18T11:03:52.971Z,98941.38
2023-02-18T11:06:32.692Z,98930.03
2023-02-18T11:09:00.019Z,98932.84
2023-02-18T11:11:37.227Z,98924.28
2023-02-18T11:14:08.060Z,98920.78
2023-02-18T11:16:45.931Z,98930.72
2023-02-18T11:19:39.743Z,98928.09
2023-02-18T11:22:09.851Z,98929.22
2023-02-18T11:24:39.696Z,98916.28
2023-02-18T11:27:23.936Z,98905.22
2023-02-18T11:29:59.614Z,98906.44
2023-02-18T11:32:31.697Z,98900.88
2023-02-18T11:34:58.186Z,98906.28
2023-02-18T11:37:25.050Z,98896.66
2023-02-18T11:39:54.593Z,98902.97
2023-02-18T11:42:24.626Z,98901.44
2023-02-18T11:44:56.926Z,98899.75
2023-02-18T11:47:35.030Z,98898.63
2023-02-18T11:50:10.710Z,98891.31
2023-02-18T11:52:45.799Z,98881.09
2023-02-18T11:55:24.950Z,98882.06
2023-02-18T11:57:57.071Z,98874.75
2023-02-18T12:00:41.918Z,98871.53
2023-02-18T12:03:18.802Z,98872.94
2023-02-18T12:05:45.784Z,98859.47
2023-02-18T12:08:28.381Z,98863.38
2023-02-18T12:11:03.960Z,98865.72
2023-02-18T12:13:52.595Z,98869.69
2023-02-18T12:16:46.541Z,98877.84
2023-02-18T12:19:31.475Z,98878.00
2023-02-18T12:22:09.877Z,98889.78
2023-02-18T12:24:52.731Z,98881.50
2023-02-18T12:27:29.487Z,98887.53
2023-02-18T12:30:21.633Z,98877.88
2023-02-18T12:33:12.869Z,98876.03
2023-02-18T12:35:57.866Z,98874.78
2023-02-18T12:38:55.781Z,98869.28
2023-02-18T12:42:04.311Z,98871.00
2023-02-18T12:44:55.540Z,98873.97
2023-02-18T12:48:00.339Z,98883.63
2023-02-18T12:50:35.138Z,98893.16
2023-02-18T12:53:29.776Z,98884.19
2023-02-18T12:56:18.923Z,98886.84
2023-02-18T12:59:15.869Z,98884.31
2023-02-18T13:02:18.274Z,98887.53
2023-02-18T13:05:04.749Z,98885.00
2023-02-18T13:07:37.490Z,98879.53
2023-02-18T13:10:38.362Z,98884.44
2023-02-18T13:13:27.509Z,98883.34
2023-02-18T13:16:01.480Z,98879.63
2023-02-18T13:18:38.939Z,98880.22
2023-02-18T13:21:09.136Z,98878.56
2023-02-18T13:23:53.216Z,98883.34
2023-02-18T13:26:22.002Z,98876.31
2023-02-18T13:29:07.752Z,98868.72
2023-02-18T13:31:46.403Z,98879.13
2023-02-18T13:34:32.696Z,98886.81
2023-02-18T13:37:29.212Z,98880.22
2023-02-18T13:39:58.971Z,98864.25
2023-02-18T13:42:31.179Z,98874.22
2023-02-18T13:44:57.673Z,98878.69
2023-02-18T13:47:42.274Z,98870.72
2023-02-18T13:50:42.060Z,98871.13
2023-02-18T13:53:08.426Z,98868.59
2023-02-18T13:56:04.076Z,98867.91
2023-02-18T13:58:36.808Z,98875.06
2023-02-18T14:01:12.968Z,98872.94
2023-02-18T14:03:42.449Z,98862.84
2023-02-18T14:06:33.508Z,98871.00
2023-02-18T14:09:25.362Z,98873.38
2023-02-18T14:12:33.243Z,98870.13
2023-02-18T14:17:32.289Z,98872.53
2023-02-18T14:20:01.801Z,98867.34
2023-02-18T14:22:30.967Z,98867.88
2023-02-18T14:25:08.432Z,98860.59
2023-02-18T14:27:36.368Z,98853.72
2023-02-18T14:30:07.221Z,98858.50
2023-02-18T14:32:34.528Z,98853.03
2023-02-18T14:35:40.399Z,98852.75
2023-02-18T14:38:20.685Z,98849.41
2023-02-18T14:41:19.277Z,98853.75
2023-02-18T14:43:57.746Z,98840.53
2023-02-18T14:46:24.155Z,98848.53
2023-02-18T14:49:08.969Z,98850.78
2023-02-18T14:51:36.058Z,98848.41
2023-02-18T14:54:06.335Z,98852.03
2023-02-18T14:56:38.690Z,98844.50
2023-02-18T14:59:06.195Z,98856.41
2023-02-18T15:01:35.417Z,98858.94
2023-02-18T15:04:03.088Z,98850.38
2023-02-18T15:06:33.920Z,98858.50
2023-02-18T15:09:02.222Z,98844.78
2023-02-18T15:11:39.228Z,98847.03
2023-02-18T15:14:27.723Z,98859.63
2023-02-18T15:16:54.404Z,98866.50
2023-02-18T15:19:24.774Z,98863.41
2023-02-18T15:21:54.015Z,98862.00
2023-02-18T15:24:37.759Z,98853.59
2023-02-18T15:27:19.820Z,98857.69
2023-02-18T15:29:56.898Z,98859.50
2023-02-18T15:32:28.805Z,98854.59
2023-02-18T15:35:04.549Z,98854.31
2023-02-18T15:37:31.172Z,98854.44
2023-02-18T15:39:57.774Z,98852.78
2023-02-18T15:42:33.017Z,98847.72
2023-02-18T15:45:04.202Z,98849.00
2023-02-18T15:47:31.859Z,98840.28
2023-02-18T15:50:01.670Z,98845.34
2023-02-18T15:52:33.974Z,98850.81
2023-02-18T15:55:11.929Z,98847.88
2023-02-18T15:57:39.750Z,98843.81
2023-02-18T16:00:16.184Z,98861.31
2023-02-18T16:03:21.394Z,98852.47
2023-02-18T16:05:48.494Z,98850.25
2023-02-18T16:08:28.314Z,98854.44
2023-02-18T16:11:05.002Z,98848.28
2023-02-18T16:13:32.476Z,98841.53
2023-02-18T16:16:01.320Z,98846.03
2023-02-18T16:21:09.578Z,98848.81
2023-02-18T16:24:01.022Z,98844.34
2023-02-18T16:26:39.665Z,98848.41
2023-02-18T16:29:25.507Z,98859.63
2023-02-18T16:31:52.466Z,98859.34
2023-02-18T16:34:19.446Z,98856.41
2023-02-18T16:37:04.676Z,98865.06
2023-02-18T16:39:35.058Z,98859.47
2023-02-18T16:42:01.726Z,98860.03
2023-02-18T16:44:28.211Z,98874.06
2023-02-18T16:46:54.735Z,98869.44
2023-02-18T16:49:21.271Z,98869.81
2023-02-18T16:51:48.813Z,98872.22
2023-02-18T16:54:16.024Z,98876.84
2023-02-18T16:56:42.594Z,98875.44
2023-02-18T16:59:09.063Z,98869.41
2023-02-18T17:01:44.053Z,98875.31
2023-02-18T17:04:13.406Z,98871.38
2023-02-18T17:06:40.048Z,98862.84
2023-02-18T17:09:17.048Z,98883.00
2023-02-18T17:11:46.319Z,98883.00
2023-02-18T17:14:18.005Z,98883.72
2023-02-18T17:16:46.021Z,98890.03
2023-02-18T17:19:12.604Z,98892.53
2023-02-18T17:21:39.484Z,98888.88
2023-02-18T17:24:05.943Z,98893.00
2023-02-18T17:26:32.455Z,98886.91
2023-02-18T17:29:03.565Z,98899.13
2023-02-18T17:31:33.864Z,98888.16
2023-02-18T17:34:04.628Z,98895.16
2023-02-18T17:36:31.026Z,98896.69
2023-02-18T17:38:58.645Z,98903.44
2023-02-18T17:41:25.526Z,98905.34
2023-02-18T17:43:52.276Z,98898.59
2023-02-18T17:46:19.808Z,98893.03
2023-02-18T17:48:47.325Z,98903.78
2023-02-18T17:51:26.139Z,98898.91
2023-02-18T17:53:53.446Z,98903.78
2023-02-18T17:56:19.896Z,98913.97
2023-02-18T17:58:47.070Z,98911.06
2023-02-18T18:01:13.640Z,98915.13
2023-02-18T18:03:40.376Z,98910.78
2023-02-18T18:06:17.048Z,98915.72
2023-02-18T18:08:43.528Z,98920.78
2023-02-18T18:11:16.280Z,98909.69
2023-02-18T18:13:42.840Z,98899.00
2023-02-18T18:16:14.296Z,98916.47
2023-02-18T18:18:41.005Z,98922.31
2023-02-18T18:21:31.722Z,98930.63
2023-02-18T18:23:58.633Z,98917.25
2023-02-18T18:26:25.122Z,98923.44
2023-02-18T18:28:51.647Z,98926.41
2023-02-18T18:31:19.952Z,98926.66
2023-02-18T18:33:49.000Z,98932.75
2023-02-18T18:36:17.129Z,98934.34
2023-02-18T18:38:43.551Z,98935.31
2023-02-18T18:41:14.651Z,98939.97
2023-02-18T18:43:41.198Z,98944.56
2023-02-18T18:46:07.765Z,98936.16
2023-02-18T18:48:34.320Z,98937.13
2023-02-18T18:51:02.191Z,98940.09
2023-02-18T18:53:34.377Z,98938.59
2023-02-18T18:56:03.886Z,98939.25
2023-02-18T18:58:30.652Z,98940.19
2023-02-18T19:01:00.419Z,98936.84
2023-02-18T19:03:28.767Z,98936.47
2023-02-18T19:05:55.956Z,98941.63
2023-02-18T19:08:22.825Z,98940.19
2023-02-18T19:10:52.801Z,98933.66
2023-02-18T19:13:21.978Z,98932.13
2023-02-18T19:15:50.538Z,98941.41
2023-02-18T19:18:21.025Z,98935.31
2023-02-18T19:20:48.021Z,98940.53
2023-02-18T19:23:15.179Z,98949.19
2023-02-18T19:25:41.852Z,98948.53
2023-02-18T19:28:10.363Z,98940.88
2023-02-18T19:30:37.293Z,98941.94
2023-02-18T19:33:06.198Z,98934.41
2023-02-18T19:35:33.266Z,98935.38
2023-02-18T19:38:00.443Z,98936.88
2023-02-18T19:40:30.436Z,98935.13
2023-02-18T19:42:57.391Z,98941.84
2023-02-18T19:45:24.286Z,98931.44
2023-02-18T19:47:55.805Z,98929.09
2023-02-18T19:50:22.888Z,98937.41
2023-02-18T19:52:52.648Z,98924.94
2023-02-18T19:55:19.287Z,98929.16
2023-02-18T19:57:45.764Z,98931.00
2023-02-18T20:00:14.827Z,98923.25
2023-02-18T20:02:42.332Z,98920.88
2023-02-18T20:05:10.876Z,98909.88
2023-02-18T20:07:38.300Z,98915.56
2023-02-18T20:10:06.528Z,98911.47
2023-02-18T20:12:33.518Z,98912.09
2023-02-18T20:14:59.983Z,98911.09
2023-02-18T20:17:26.458Z,98914.38
2023-02-18T20:19:52.892Z,98920.75
2023-02-18T20:22:19.313Z,98916.00
2023-02-18T20:24:45.821Z,98921.22
2023-02-18T20:27:12.676Z,98919.50
2023-02-18T20:29:39.290Z,98919.16
2023-02-18T20:32:06.355Z,98919.59
2023-02-18T20:34:33.173Z,98920.28
2023-02-18T20:37:00.980Z,98917.25
2023-02-18T20:39:27.661Z,98916.16
2023-02-18T20:41:54.102Z,98917.25
2023-02-18T20:44:21.294Z,98908.81
2023-02-18T20:46:50.893Z,98897.63
2023-02-18T20:49:19.700Z,98897.16
2023-02-18T20:51:46.498Z,98900.47
2023-02-18T20:54:15.870Z,98900.84
2023-02-18T20:56:43.824Z,98897.81
2023-02-18T20:59:15.412Z,98896.25
2023-02-18T21:01:43.198Z,98892.75
2023-02-18T21:04:14.886Z,98894.06
2023-02-18T21:06:41.513Z,98882.06
2023-02-18T21:09:08.167Z,98888.69
2023-02-18T21:11:34.685Z,98881.69
2023-02-18T21:14:01.634Z,98892.38
2023-02-18T21:16:29.615Z,98895.88
2023-02-18T21:18:56.127Z,98892.47
2023-02-18T21:21:25.784Z,98886.78
2023-02-18T21:23:53.210Z,98883.88
2023-02-18T21:26:23.714Z,98878.41
2023-02-18T21:28:53.167Z,98880.16
2023-02-18T21:31:28.333Z,98870.66
2023-02-18T21:33:55.461Z,98872.56
2023-02-18T21:36:22.492Z,98870.66
2023-02-18T21:38:53.885Z,98871.47
2023-02-18T21:41:21.273Z,98857.91
2023-02-18T21:43:48.707Z,98867.31
2023-02-18T21:46:41.817Z,98867.63
2023-02-18T21:49:12.350Z,98860.09
2023-02-18T21:51:57.268Z,98861.22
2023-02-18T21:54:31.930Z,98849.22
2023-02-18T21:57:00.282Z,98844.88
2023-02-18T21:59:29.235Z,98838.72
2023-02-18T22:01:57.178Z,98846.59
2023-02-18T22:04:25.189Z,98831.31
2023-02-18T22:06:51.803Z,98832.34
2023-02-18T22:09:18.801Z,98827.38
2023-02-18T22:11:45.409Z,98825.97
2023-02-18T22:14:13.489Z,98827.59
2023-02-18T22:16:40.915Z,98829.03
2023-02-18T22:19:08.350Z,98823.00
2023-02-18T22:21:34.832Z,98828.97
2023-02-18T22:24:01.264Z,98823.56
2023-02-18T22:26:27.752Z,98814.59
2023-02-18T22:28:56.103Z,98809.13
2023-02-18T22:31:23.609Z,98819.59
2023-02-18T22:33:52.383Z,98822.41
2023-02-18T22:36:20.698Z,98818.78
2023-02-18T22:38:48.252Z,98816.81
2023-02-18T22:41:16.322Z,98810.38
2023-02-18T22:43:43.054Z,98819.63
2023-02-18T22:46:18.634Z,98806.91
2023-02-18T22:48:45.519Z,98800.16
2023-02-18T22:51:15.436Z,98804.50
2023-02-18T22:53:43.149Z,98800.47
2023-02-18T22:56:15.846Z,98813.81
2023-02-18T22:58:43.512Z,98811.16
2023-02-18T23:01:24.955Z,98807.66
2023-02-18T23:03:53.014Z,98809.28
2023-02-18T23:06:20.566Z,98800.16
2023-02-18T23:08:47.310Z,98798.66
2023-02-18T23:11:17.406Z,98808.00
2023-02-18T23:13:44.393Z,98800.78
2023-02-18T23:16:14.871Z,98800.78
2023-02-18T23:18:41.850Z,98800.88
2023-02-18T23:21:20.774Z,98802.59
2023-02-18T23:23:52.591Z,98790.59
2023-02-18T23:26:21.816Z,98801.84
2023-02-18T23:28:50.203Z,98792.63
2023-02-18T23:31:23.481Z,98802.44
2023-02-18T23:33:53.692Z,98785.50
2023-02-18T23:36:23.084Z,98791.41
2023-02-18T23:38:51.308Z,98777.28
2023-02-18T23:41:18.717Z,98785.84
2023-02-18T23:43:46.106Z,98778.81
2023-02-18T23:46:14.116Z,98787.66
2023-02-18T23:48:40.726Z,98779.94
2023-02-18T23:51:09.931Z,98785.66
2023-02-18T23:53:37.884Z,98783.44
2023-02-18T23:56:09.296Z,98781.63
2023-02-18T23:58:35.857Z,98775.31
